Mr Thomas — WDD7163 — position and weather

sailwx.info

Track history (hours):
 
Tides and Currents Weather Stations Pressure Air Temp Water Temp Dewpoint Dewpoint Depression Visibility Wind Speed Wind Dir Waves Ship Positions

Mr Thomas

Owner: CENTRAL BOAT RENTALS, BERWICK, LA. More information available from US FCC via Universal Licensing System and Coast Guard Vessel Documentation Center.

Last reported at 2014-Oct-30 13:33 UTC. Time now 2014-Oct-30 14:28 UTC.
Position N 29°41' W 091°09'.

Length 21 m.

Type: Tug. MMSI: 367182730.

Date/timePositionNaut miles runAvg speedWind from/ knotsBaromVisibWave heightAir tempDewpointWater temp
2014-Oct-30 13:33N 29°41' W 091°09'0 0.0
2014-Oct-30 12:32N 29°41' W 091°09'0 0.0
2014-Oct-30 11:32N 29°41' W 091°09'0 0.0
2014-Oct-30 10:32N 29°41' W 091°09'0 0.0
2014-Oct-30 09:32N 29°41' W 091°09'0 0.0
2014-Oct-30 08:32N 29°41' W 091°09'0 0.0
2014-Oct-30 07:32N 29°41' W 091°09'0 0.0
2014-Oct-30 06:32N 29°41' W 091°09'0 0.0
2014-Oct-30 05:32N 29°41' W 091°09'0 0.0
2014-Oct-30 04:32N 29°41' W 091°09'0 0.0
2014-Oct-30 03:32N 29°41' W 091°09'0 0.0
2014-Oct-30 02:32N 29°41' W 091°09'0 0.0
2014-Oct-30 01:32N 29°41' W 091°09'0 0.0
2014-Oct-30 00:32N 29°41' W 091°09'0 0.0
2014-Oct-29 23:32N 29°41' W 091°09'0 0.0
2014-Oct-29 22:32N 29°41' W 091°09'0 0.0
2014-Oct-29 21:32N 29°41' W 091°09'0 0.0
2014-Oct-29 20:32N 29°41' W 091°09'0 0.0
2014-Oct-29 19:32N 29°41' W 091°09'0 0.0
2014-Oct-29 18:32N 29°41' W 091°09'0 0.0
2014-Oct-29 17:32N 29°41' W 091°09'0 0.0
2014-Oct-29 16:32N 29°41' W 091°09'0 0.0
2014-Oct-29 15:32N 29°41' W 091°09'0 0.0
2014-Oct-29 14:32N 29°41' W 091°09'0 0.0
2014-Oct-29 13:32N 29°41' W 091°09'0 0.0
2014-Oct-29 12:32N 29°41' W 091°09'0 0.0
2014-Oct-29 11:32N 29°41' W 091°09'0 0.0
2014-Oct-29 10:32N 29°41' W 091°09'0 0.0
2014-Oct-29 09:32N 29°41' W 091°09'0 0.0
2014-Oct-29 08:32N 29°41' W 091°09'0 0.0
2014-Oct-29 07:32N 29°41' W 091°09'0 0.0
2014-Oct-29 06:32N 29°41' W 091°09'0 0.0
2014-Oct-29 05:32N 29°41' W 091°09'0 0.0
2014-Oct-29 04:32N 29°41' W 091°09'0 0.0
2014-Oct-29 03:32N 29°41' W 091°09'0 0.0
2014-Oct-29 02:32N 29°41' W 091°09'0 0.0
2014-Oct-29 01:32N 29°41' W 091°09'0 0.0
2014-Oct-29 00:32N 29°41' W 091°09'0 0.0
2014-Oct-28 23:32N 29°41' W 091°09'0 0.0
2014-Oct-28 22:32N 29°41' W 091°09'0 0.0
2014-Oct-28 21:32N 29°41' W 091°09'0 0.0
2014-Oct-28 20:29N 29°41' W 091°09'0 0.0
2014-Oct-28 19:32N 29°41' W 091°09'0 0.0
2014-Oct-28 18:32N 29°41' W 091°09'0 0.0
2014-Oct-28 17:32N 29°41' W 091°09'0 0.0
2014-Oct-28 16:32N 29°41' W 091°09'0 0.0
2014-Oct-28 15:32N 29°41' W 091°09'0 0.0
2014-Oct-28 14:32N 29°41' W 091°09'0 0.0
2014-Oct-28 13:32N 29°41' W 091°09'0 0.0
2014-Oct-28 12:32N 29°41' W 091°09'0 0.0
2014-Oct-28 11:32N 29°41' W 091°09'0 0.0
2014-Oct-28 10:32N 29°41' W 091°09'0 0.0
2014-Oct-28 09:32N 29°41' W 091°09'0 0.0
2014-Oct-28 08:32N 29°41' W 091°09'0 0.0
2014-Oct-28 07:32N 29°41' W 091°09'0 0.0
2014-Oct-28 06:32N 29°41' W 091°09'0 0.0
2014-Oct-28 05:32N 29°41' W 091°09'0 0.0
2014-Oct-28 04:32N 29°41' W 091°09'0 0.0
2014-Oct-28 03:32N 29°41' W 091°09'0 0.0
2014-Oct-28 02:32N 29°41' W 091°09'0 0.0
2014-Oct-28 01:32N 29°41' W 091°09'0 0.0
2014-Oct-28 00:32N 29°41' W 091°09'0 0.0
2014-Oct-27 23:32N 29°41' W 091°09'0 0.0
2014-Oct-27 22:29N 29°41' W 091°09'0 0.0
2014-Oct-27 21:32N 29°41' W 091°09'0 0.0
2014-Oct-27 20:32N 29°41' W 091°09'0 0.0
2014-Oct-27 19:29N 29°41' W 091°09'0 0.0
2014-Oct-27 18:32N 29°41' W 091°09'0 0.0
2014-Oct-27 17:32N 29°41' W 091°09'2 2.4
2014-Oct-27 16:33N 29°41' W 091°12'2 2.2
2014-Oct-27 15:32N 29°40' W 091°14'0 0.0
2014-Oct-27 14:32N 29°40' W 091°14'0 0.0
2014-Oct-27 13:32N 29°40' W 091°14'4 3.9
2014-Oct-27 12:32N 29°41' W 091°10'1 0.6
2014-Oct-27 11:32N 29°41' W 091°09'0 0.0
2014-Oct-27 10:32N 29°41' W 091°09'0 0.0
2014-Oct-27 09:32N 29°41' W 091°09'0 0.0
2014-Oct-27 08:32N 29°41' W 091°09'0 0.0
2014-Oct-27 07:32N 29°41' W 091°09'0 0.0
2014-Oct-27 06:32N 29°41' W 091°09'0 0.0
2014-Oct-27 05:32N 29°41' W 091°09'0 0.0
2014-Oct-27 04:32N 29°41' W 091°09'0 0.0
2014-Oct-27 03:32N 29°41' W 091°09'0 0.0
2014-Oct-27 02:32N 29°41' W 091°09'0 0.0
2014-Oct-27 01:32N 29°41' W 091°09'0 0.0
2014-Oct-27 00:32N 29°41' W 091°09'0 0.0
2014-Oct-26 23:32N 29°41' W 091°09'0 0.0
2014-Oct-26 22:32N 29°41' W 091°09'0 0.0
2014-Oct-26 21:32N 29°41' W 091°09'0 0.0
2014-Oct-26 20:32N 29°41' W 091°09'0 0.0
2014-Oct-26 19:32N 29°41' W 091°09'0 0.0
2014-Oct-26 18:32N 29°41' W 091°09'0 0.0
2014-Oct-26 17:32N 29°41' W 091°09'0 0.0
2014-Oct-26 16:32N 29°41' W 091°09'0 0.0
2014-Oct-26 15:32N 29°41' W 091°09'0 0.0
2014-Oct-26 14:32N 29°41' W 091°09'0 0.0
2014-Oct-26 13:32N 29°41' W 091°09'0 0.0
2014-Oct-26 12:32N 29°41' W 091°09'0 0.0
2014-Oct-26 11:32N 29°41' W 091°09'0 0.0
2014-Oct-26 10:32N 29°41' W 091°09'0 0.0
2014-Oct-26 09:32N 29°41' W 091°09'0 0.0
2014-Oct-26 08:32N 29°41' W 091°09'0 0.0
2014-Oct-26 07:32N 29°41' W 091°09'0 0.0
2014-Oct-26 06:32N 29°41' W 091°09'0 0.0
2014-Oct-26 05:32N 29°41' W 091°09'0 0.0
2014-Oct-26 04:32N 29°41' W 091°09'0 0.0
2014-Oct-26 03:32N 29°41' W 091°09'0 0.0
2014-Oct-26 02:32N 29°41' W 091°09'0 0.0
2014-Oct-26 01:32N 29°41' W 091°09'0 0.0
2014-Oct-26 00:32N 29°41' W 091°09'0 0.0
2014-Oct-25 23:32N 29°41' W 091°09'0 0.0
2014-Oct-25 22:32N 29°41' W 091°09'0 0.0
2014-Oct-25 21:32N 29°41' W 091°09'0 0.0
2014-Oct-25 20:32N 29°41' W 091°09'0 0.0
2014-Oct-25 19:32N 29°41' W 091°09'0 0.0
2014-Oct-25 18:32N 29°41' W 091°09'0 0.0
2014-Oct-25 17:32N 29°41' W 091°09'0 0.0
2014-Oct-25 16:31N 29°41' W 091°09'0 0.0
2014-Oct-25 15:31N 29°41' W 091°09'0 0.0
2014-Oct-25 14:31N 29°41' W 091°09'0 0.0
2014-Oct-25 13:31N 29°41' W 091°09'0 0.0
2014-Oct-25 12:31N 29°41' W 091°09'0 0.0
2014-Oct-25 11:31N 29°41' W 091°09'0 0.0
2014-Oct-25 10:31N 29°41' W 091°09'0 0.0
2014-Oct-25 09:31N 29°41' W 091°09'0 0.0
2014-Oct-25 08:31N 29°41' W 091°09'0 0.0
2014-Oct-25 07:31N 29°41' W 091°09'0 0.0
2014-Oct-25 06:31N 29°41' W 091°09'0 0.0
2014-Oct-25 05:31N 29°41' W 091°09'0 0.0
2014-Oct-25 04:34N 29°41' W 091°09'0 0.0
2014-Oct-25 03:34N 29°41' W 091°09'0 0.0
2014-Oct-25 02:34N 29°41' W 091°09'0 0.0
2014-Oct-25 01:31N 29°41' W 091°09'0 0.0
2014-Oct-25 00:31N 29°41' W 091°09'0 0.0
2014-Oct-24 23:34N 29°41' W 091°09'0 0.0
2014-Oct-24 22:34N 29°41' W 091°09'0 0.0
2014-Oct-24 21:34N 29°41' W 091°09'0 0.0
2014-Oct-24 20:34N 29°41' W 091°09'0 0.0
2014-Oct-24 19:34N 29°41' W 091°09'0 0.0
2014-Oct-24 18:34N 29°41' W 091°09'0 0.0
2014-Oct-24 17:34N 29°41' W 091°09'0 0.0
2014-Oct-24 16:34N 29°41' W 091°09'0 0.0
2014-Oct-24 15:34N 29°41' W 091°09'0 0.0
2014-Oct-24 14:34N 29°41' W 091°09'0 0.0
2014-Oct-24 13:34N 29°41' W 091°09'0 0.0
2014-Oct-24 12:34N 29°41' W 091°09'0 0.0
2014-Oct-24 11:34N 29°41' W 091°09'0 0.0
2014-Oct-24 10:34N 29°41' W 091°09'0 0.0
2014-Oct-24 09:34N 29°41' W 091°09'0 0.0
2014-Oct-24 08:34N 29°41' W 091°09'0 0.0
2014-Oct-24 07:34N 29°41' W 091°09'0 0.0
2014-Oct-24 06:34N 29°41' W 091°09'0 0.0
2014-Oct-24 05:34N 29°41' W 091°09'0 0.0
2014-Oct-24 04:34N 29°41' W 091°09'0 0.0
2014-Oct-24 03:34N 29°41' W 091°09'0 0.0
2014-Oct-24 02:34N 29°41' W 091°09'0 0.0
2014-Oct-24 01:34N 29°41' W 091°09'0 0.0
2014-Oct-24 00:33N 29°41' W 091°09'0 0.0
2014-Oct-23 23:34N 29°41' W 091°09'0 0.0
2014-Oct-23 22:31N 29°41' W 091°09'0 0.0
2014-Oct-23 21:34N 29°41' W 091°09'0 0.0
2014-Oct-23 20:33N 29°41' W 091°09'0 0.0
2014-Oct-23 19:33N 29°41' W 091°09'0 0.0
2014-Oct-23 18:33N 29°41' W 091°09'0 0.0
2014-Oct-23 17:33N 29°41' W 091°09'0 0.0
2014-Oct-23 16:33N 29°41' W 091°09'0 0.0
2014-Oct-23 15:33N 29°41' W 091°09'0 0.0
2014-Oct-23 14:33N 29°41' W 091°09'0 0.0
2014-Oct-23 13:33N 29°41' W 091°09'0 0.0
2014-Oct-23 12:33N 29°41' W 091°09'0 0.0
2014-Oct-23 11:33N 29°41' W 091°09'0 0.0
2014-Oct-23 10:33N 29°41' W 091°09'0 0.0
2014-Oct-23 09:33N 29°41' W 091°09'0 0.0
2014-Oct-23 08:33N 29°41' W 091°09'0 0.0
2014-Oct-23 07:33N 29°41' W 091°09'0 0.0
2014-Oct-23 06:33N 29°41' W 091°09'0 0.0
2014-Oct-23 05:33N 29°41' W 091°09'0 0.0
2014-Oct-23 04:33N 29°41' W 091°09'0 0.0
2014-Oct-23 03:33N 29°41' W 091°09'0 0.0
2014-Oct-23 02:33N 29°41' W 091°09'0 0.0
2014-Oct-23 01:33N 29°41' W 091°09'0 0.0
2014-Oct-23 00:33N 29°41' W 091°09'0 0.0
2014-Oct-22 23:33N 29°41' W 091°09'0 0.0
2014-Oct-22 22:33N 29°41' W 091°09'0 0.0
2014-Oct-22 21:33N 29°41' W 091°09'0 0.0
2014-Oct-22 20:33N 29°41' W 091°09'0 0.0
2014-Oct-22 19:33N 29°41' W 091°09'0 0.0
2014-Oct-22 18:33N 29°41' W 091°09'0 0.0
2014-Oct-22 17:33N 29°41' W 091°09'0 0.0
2014-Oct-22 16:33N 29°41' W 091°09'0 0.0
2014-Oct-22 15:33N 29°41' W 091°09'0 0.0
2014-Oct-22 14:33N 29°41' W 091°09'0 0.0
2014-Oct-22 13:33N 29°41' W 091°09'0 0.0
2014-Oct-22 12:33N 29°41' W 091°09'0 0.0
2014-Oct-22 11:33N 29°41' W 091°09'4 3.7
2014-Oct-22 10:33N 29°39' W 091°06'5 5.4
2014-Oct-22 09:33N 29°37' W 091°00'6 5.7
2014-Oct-22 08:32N 29°34' W 090°55'6 5.9
2014-Oct-22 07:27N 29°32' W 090°48'6 2.7
2014-Oct-22 05:13N 29°28' W 090°43'5 6.1
2014-Oct-22 04:28N 29°23' W 090°44'5 5.8
2014-Oct-22 03:33N 29°18' W 090°43'22 0.7
2014-Oct-20 18:27N 29°36' W 090°58'5 5.2
2014-Oct-20 17:33N 29°37' W 091°03'5 5.1
2014-Oct-20 16:33N 29°40' W 091°08'2 2.4
2014-Oct-20 15:33N 29°41' W 091°11'0 0.0
2014-Oct-20 14:33N 29°41' W 091°11'  
Track history (hours):
 
Tides and Currents Weather Stations Pressure Air Temp Water Temp Dewpoint Dewpoint Depression Visibility Wind Speed Wind Dir Waves Ship Positions

Mr Thomas

Owner: CENTRAL BOAT RENTALS, BERWICK, LA. More information available from US FCC via Universal Licensing System and Coast Guard Vessel Documentation Center.

Last reported at 2014-Oct-30 13:33 UTC. Time now 2014-Oct-30 14:28 UTC.
Position N 29°41' W 091°09'.

Length 21 m.

Type: Tug. MMSI: 367182730.

Date/timePositionNaut miles runAvg speedWind from/ knotsBaromVisibWave heightAir tempDewpointWater temp
2014-Oct-30 13:33N 29°41' W 091°09'0 0.0
2014-Oct-30 12:32N 29°41' W 091°09'0 0.0
2014-Oct-30 11:32N 29°41' W 091°09'0 0.0
2014-Oct-30 10:32N 29°41' W 091°09'0 0.0
2014-Oct-30 09:32N 29°41' W 091°09'0 0.0
2014-Oct-30 08:32N 29°41' W 091°09'0 0.0
2014-Oct-30 07:32N 29°41' W 091°09'0 0.0
2014-Oct-30 06:32N 29°41' W 091°09'0 0.0
2014-Oct-30 05:32N 29°41' W 091°09'0 0.0
2014-Oct-30 04:32N 29°41' W 091°09'0 0.0
2014-Oct-30 03:32N 29°41' W 091°09'0 0.0
2014-Oct-30 02:32N 29°41' W 091°09'0 0.0
2014-Oct-30 01:32N 29°41' W 091°09'0 0.0
2014-Oct-30 00:32N 29°41' W 091°09'0 0.0
2014-Oct-29 23:32N 29°41' W 091°09'0 0.0
2014-Oct-29 22:32N 29°41' W 091°09'0 0.0
2014-Oct-29 21:32N 29°41' W 091°09'0 0.0
2014-Oct-29 20:32N 29°41' W 091°09'0 0.0
2014-Oct-29 19:32N 29°41' W 091°09'0 0.0
2014-Oct-29 18:32N 29°41' W 091°09'0 0.0
2014-Oct-29 17:32N 29°41' W 091°09'0 0.0
2014-Oct-29 16:32N 29°41' W 091°09'0 0.0
2014-Oct-29 15:32N 29°41' W 091°09'0 0.0
2014-Oct-29 14:32N 29°41' W 091°09'0 0.0
2014-Oct-29 13:32N 29°41' W 091°09'0 0.0
2014-Oct-29 12:32N 29°41' W 091°09'0 0.0
2014-Oct-29 11:32N 29°41' W 091°09'0 0.0
2014-Oct-29 10:32N 29°41' W 091°09'0 0.0
2014-Oct-29 09:32N 29°41' W 091°09'0 0.0
2014-Oct-29 08:32N 29°41' W 091°09'0 0.0
2014-Oct-29 07:32N 29°41' W 091°09'0 0.0
2014-Oct-29 06:32N 29°41' W 091°09'0 0.0
2014-Oct-29 05:32N 29°41' W 091°09'0 0.0
2014-Oct-29 04:32N 29°41' W 091°09'0 0.0
2014-Oct-29 03:32N 29°41' W 091°09'0 0.0
2014-Oct-29 02:32N 29°41' W 091°09'0 0.0
2014-Oct-29 01:32N 29°41' W 091°09'0 0.0
2014-Oct-29 00:32N 29°41' W 091°09'0 0.0
2014-Oct-28 23:32N 29°41' W 091°09'0 0.0
2014-Oct-28 22:32N 29°41' W 091°09'0 0.0
2014-Oct-28 21:32N 29°41' W 091°09'0 0.0
2014-Oct-28 20:29N 29°41' W 091°09'0 0.0
2014-Oct-28 19:32N 29°41' W 091°09'0 0.0
2014-Oct-28 18:32N 29°41' W 091°09'0 0.0
2014-Oct-28 17:32N 29°41' W 091°09'0 0.0
2014-Oct-28 16:32N 29°41' W 091°09'0 0.0
2014-Oct-28 15:32N 29°41' W 091°09'0 0.0
2014-Oct-28 14:32N 29°41' W 091°09'0 0.0
2014-Oct-28 13:32N 29°41' W 091°09'0 0.0
2014-Oct-28 12:32N 29°41' W 091°09'0 0.0
2014-Oct-28 11:32N 29°41' W 091°09'0 0.0
2014-Oct-28 10:32N 29°41' W 091°09'0 0.0
2014-Oct-28 09:32N 29°41' W 091°09'0 0.0
2014-Oct-28 08:32N 29°41' W 091°09'0 0.0
2014-Oct-28 07:32N 29°41' W 091°09'0 0.0
2014-Oct-28 06:32N 29°41' W 091°09'0 0.0
2014-Oct-28 05:32N 29°41' W 091°09'0 0.0
2014-Oct-28 04:32N 29°41' W 091°09'0 0.0
2014-Oct-28 03:32N 29°41' W 091°09'0 0.0
2014-Oct-28 02:32N 29°41' W 091°09'0 0.0
2014-Oct-28 01:32N 29°41' W 091°09'0 0.0
2014-Oct-28 00:32N 29°41' W 091°09'0 0.0
2014-Oct-27 23:32N 29°41' W 091°09'0 0.0
2014-Oct-27 22:29N 29°41' W 091°09'0 0.0
2014-Oct-27 21:32N 29°41' W 091°09'0 0.0
2014-Oct-27 20:32N 29°41' W 091°09'0 0.0
2014-Oct-27 19:29N 29°41' W 091°09'0 0.0
2014-Oct-27 18:32N 29°41' W 091°09'0 0.0
2014-Oct-27 17:32N 29°41' W 091°09'2 2.4
2014-Oct-27 16:33N 29°41' W 091°12'2 2.2
2014-Oct-27 15:32N 29°40' W 091°14'0 0.0
2014-Oct-27 14:32N 29°40' W 091°14'0 0.0
2014-Oct-27 13:32N 29°40' W 091°14'4 3.9
2014-Oct-27 12:32N 29°41' W 091°10'1 0.6
2014-Oct-27 11:32N 29°41' W 091°09'0 0.0
2014-Oct-27 10:32N 29°41' W 091°09'0 0.0
2014-Oct-27 09:32N 29°41' W 091°09'0 0.0
2014-Oct-27 08:32N 29°41' W 091°09'0 0.0
2014-Oct-27 07:32N 29°41' W 091°09'0 0.0
2014-Oct-27 06:32N 29°41' W 091°09'0 0.0
2014-Oct-27 05:32N 29°41' W 091°09'0 0.0
2014-Oct-27 04:32N 29°41' W 091°09'0 0.0
2014-Oct-27 03:32N 29°41' W 091°09'0 0.0
2014-Oct-27 02:32N 29°41' W 091°09'0 0.0
2014-Oct-27 01:32N 29°41' W 091°09'0 0.0
2014-Oct-27 00:32N 29°41' W 091°09'0 0.0
2014-Oct-26 23:32N 29°41' W 091°09'0 0.0
2014-Oct-26 22:32N 29°41' W 091°09'0 0.0
2014-Oct-26 21:32N 29°41' W 091°09'0 0.0
2014-Oct-26 20:32N 29°41' W 091°09'0 0.0
2014-Oct-26 19:32N 29°41' W 091°09'0 0.0
2014-Oct-26 18:32N 29°41' W 091°09'0 0.0
2014-Oct-26 17:32N 29°41' W 091°09'0 0.0
2014-Oct-26 16:32N 29°41' W 091°09'0 0.0
2014-Oct-26 15:32N 29°41' W 091°09'0 0.0
2014-Oct-26 14:32N 29°41' W 091°09'0 0.0
2014-Oct-26 13:32N 29°41' W 091°09'0 0.0
2014-Oct-26 12:32N 29°41' W 091°09'0 0.0
2014-Oct-26 11:32N 29°41' W 091°09'0 0.0
2014-Oct-26 10:32N 29°41' W 091°09'0 0.0
2014-Oct-26 09:32N 29°41' W 091°09'0 0.0
2014-Oct-26 08:32N 29°41' W 091°09'0 0.0
2014-Oct-26 07:32N 29°41' W 091°09'0 0.0
2014-Oct-26 06:32N 29°41' W 091°09'0 0.0
2014-Oct-26 05:32N 29°41' W 091°09'0 0.0
2014-Oct-26 04:32N 29°41' W 091°09'0 0.0
2014-Oct-26 03:32N 29°41' W 091°09'0 0.0
2014-Oct-26 02:32N 29°41' W 091°09'0 0.0
2014-Oct-26 01:32N 29°41' W 091°09'0 0.0
2014-Oct-26 00:32N 29°41' W 091°09'0 0.0
2014-Oct-25 23:32N 29°41' W 091°09'0 0.0
2014-Oct-25 22:32N 29°41' W 091°09'0 0.0
2014-Oct-25 21:32N 29°41' W 091°09'0 0.0
2014-Oct-25 20:32N 29°41' W 091°09'0 0.0
2014-Oct-25 19:32N 29°41' W 091°09'0 0.0
2014-Oct-25 18:32N 29°41' W 091°09'0 0.0
2014-Oct-25 17:32N 29°41' W 091°09'0 0.0
2014-Oct-25 16:31N 29°41' W 091°09'0 0.0
2014-Oct-25 15:31N 29°41' W 091°09'0 0.0
2014-Oct-25 14:31N 29°41' W 091°09'0 0.0
2014-Oct-25 13:31N 29°41' W 091°09'0 0.0
2014-Oct-25 12:31N 29°41' W 091°09'0 0.0
2014-Oct-25 11:31N 29°41' W 091°09'0 0.0
2014-Oct-25 10:31N 29°41' W 091°09'0 0.0
2014-Oct-25 09:31N 29°41' W 091°09'0 0.0
2014-Oct-25 08:31N 29°41' W 091°09'0 0.0
2014-Oct-25 07:31N 29°41' W 091°09'0 0.0
2014-Oct-25 06:31N 29°41' W 091°09'0 0.0
2014-Oct-25 05:31N 29°41' W 091°09'0 0.0
2014-Oct-25 04:34N 29°41' W 091°09'0 0.0
2014-Oct-25 03:34N 29°41' W 091°09'0 0.0
2014-Oct-25 02:34N 29°41' W 091°09'0 0.0
2014-Oct-25 01:31N 29°41' W 091°09'0 0.0
2014-Oct-25 00:31N 29°41' W 091°09'0 0.0
2014-Oct-24 23:34N 29°41' W 091°09'0 0.0
2014-Oct-24 22:34N 29°41' W 091°09'0 0.0
2014-Oct-24 21:34N 29°41' W 091°09'0 0.0
2014-Oct-24 20:34N 29°41' W 091°09'0 0.0
2014-Oct-24 19:34N 29°41' W 091°09'0 0.0
2014-Oct-24 18:34N 29°41' W 091°09'0 0.0
2014-Oct-24 17:34N 29°41' W 091°09'0 0.0
2014-Oct-24 16:34N 29°41' W 091°09'0 0.0
2014-Oct-24 15:34N 29°41' W 091°09'0 0.0
2014-Oct-24 14:34N 29°41' W 091°09'0 0.0
2014-Oct-24 13:34N 29°41' W 091°09'0 0.0
2014-Oct-24 12:34N 29°41' W 091°09'0 0.0
2014-Oct-24 11:34N 29°41' W 091°09'0 0.0
2014-Oct-24 10:34N 29°41' W 091°09'0 0.0
2014-Oct-24 09:34N 29°41' W 091°09'0 0.0
2014-Oct-24 08:34N 29°41' W 091°09'0 0.0
2014-Oct-24 07:34N 29°41' W 091°09'0 0.0
2014-Oct-24 06:34N 29°41' W 091°09'0 0.0
2014-Oct-24 05:34N 29°41' W 091°09'0 0.0
2014-Oct-24 04:34N 29°41' W 091°09'0 0.0
2014-Oct-24 03:34N 29°41' W 091°09'0 0.0
2014-Oct-24 02:34N 29°41' W 091°09'0 0.0
2014-Oct-24 01:34N 29°41' W 091°09'0 0.0
2014-Oct-24 00:33N 29°41' W 091°09'0 0.0
2014-Oct-23 23:34N 29°41' W 091°09'0 0.0
2014-Oct-23 22:31N 29°41' W 091°09'0 0.0
2014-Oct-23 21:34N 29°41' W 091°09'0 0.0
2014-Oct-23 20:33N 29°41' W 091°09'0 0.0
2014-Oct-23 19:33N 29°41' W 091°09'0 0.0
2014-Oct-23 18:33N 29°41' W 091°09'0 0.0
2014-Oct-23 17:33N 29°41' W 091°09'0 0.0
2014-Oct-23 16:33N 29°41' W 091°09'0 0.0
2014-Oct-23 15:33N 29°41' W 091°09'0 0.0
2014-Oct-23 14:33N 29°41' W 091°09'0 0.0
2014-Oct-23 13:33N 29°41' W 091°09'0 0.0
2014-Oct-23 12:33N 29°41' W 091°09'0 0.0
2014-Oct-23 11:33N 29°41' W 091°09'0 0.0
2014-Oct-23 10:33N 29°41' W 091°09'0 0.0
2014-Oct-23 09:33N 29°41' W 091°09'0 0.0
2014-Oct-23 08:33N 29°41' W 091°09'0 0.0
2014-Oct-23 07:33N 29°41' W 091°09'0 0.0
2014-Oct-23 06:33N 29°41' W 091°09'0 0.0
2014-Oct-23 05:33N 29°41' W 091°09'0 0.0
2014-Oct-23 04:33N 29°41' W 091°09'0 0.0
2014-Oct-23 03:33N 29°41' W 091°09'0 0.0
2014-Oct-23 02:33N 29°41' W 091°09'0 0.0
2014-Oct-23 01:33N 29°41' W 091°09'0 0.0
2014-Oct-23 00:33N 29°41' W 091°09'0 0.0
2014-Oct-22 23:33N 29°41' W 091°09'0 0.0
2014-Oct-22 22:33N 29°41' W 091°09'0 0.0
2014-Oct-22 21:33N 29°41' W 091°09'0 0.0
2014-Oct-22 20:33N 29°41' W 091°09'0 0.0
2014-Oct-22 19:33N 29°41' W 091°09'0 0.0
2014-Oct-22 18:33N 29°41' W 091°09'0 0.0
2014-Oct-22 17:33N 29°41' W 091°09'0 0.0
2014-Oct-22 16:33N 29°41' W 091°09'0 0.0
2014-Oct-22 15:33N 29°41' W 091°09'0 0.0
2014-Oct-22 14:33N 29°41' W 091°09'0 0.0
2014-Oct-22 13:33N 29°41' W 091°09'0 0.0
2014-Oct-22 12:33N 29°41' W 091°09'0 0.0
2014-Oct-22 11:33N 29°41' W 091°09'4 3.7
2014-Oct-22 10:33N 29°39' W 091°06'5 5.4
2014-Oct-22 09:33N 29°37' W 091°00'6 5.7
2014-Oct-22 08:32N 29°34' W 090°55'6 5.9
2014-Oct-22 07:27N 29°32' W 090°48'6 2.7
2014-Oct-22 05:13N 29°28' W 090°43'5 6.1
2014-Oct-22 04:28N 29°23' W 090°44'5 5.8
2014-Oct-22 03:33N 29°18' W 090°43'22 0.7
2014-Oct-20 18:27N 29°36' W 090°58'5 5.2
2014-Oct-20 17:33N 29°37' W 091°03'5 5.1
2014-Oct-20 16:33N 29°40' W 091°08'2 2.4
2014-Oct-20 15:33N 29°41' W 091°11'0 0.0
2014-Oct-20 14:33N 29°41' W 091°11'  

Dump ship's entire track history